sensor_id;sensor_type;location;lat;lon;timestamp;P1;durP1;ratioP1;P2;durP2;ratioP2
13941;SDS011;7043;51.630;7.254;2022-12-24T00:00:24;14.00;;;5.83;;
13941;SDS011;7043;51.630;7.254;2022-12-24T00:02:50;22.07;;;7.13;;
13941;SDS011;7043;51.630;7.254;2022-12-24T00:05:16;14.23;;;5.37;;
13941;SDS011;7043;51.630;7.254;2022-12-24T00:07:42;17.43;;;6.70;;
13941;SDS011;7043;51.630;7.254;2022-12-24T00:10:08;20.77;;;7.23;;
13941;SDS011;7043;51.630;7.254;2022-12-24T00:12:34;15.73;;;7.03;;
13941;SDS011;7043;51.630;7.254;2022-12-24T00:15:01;22.37;;;7.80;;
13941;SDS011;7043;51.630;7.254;2022-12-24T00:17:27;22.57;;;8.30;;
13941;SDS011;7043;51.630;7.254;2022-12-24T00:19:55;20.23;;;6.73;;
13941;SDS011;7043;51.630;7.254;2022-12-24T00:22:21;18.07;;;6.47;;
13941;SDS011;7043;51.630;7.254;2022-12-24T00:24:47;19.60;;;6.33;;
13941;SDS011;7043;51.630;7.254;2022-12-24T00:27:13;21.83;;;6.17;;
13941;SDS011;7043;51.630;7.254;2022-12-24T00:29:40;21.23;;;6.30;;
13941;SDS011;7043;51.630;7.254;2022-12-24T00:32:06;19.50;;;6.50;;
13941;SDS011;7043;51.630;7.254;2022-12-24T00:34:34;18.60;;;5.70;;
13941;SDS011;7043;51.630;7.254;2022-12-24T00:37:01;21.53;;;5.80;;
13941;SDS011;7043;51.630;7.254;2022-12-24T00:39:27;28.30;;;6.47;;
13941;SDS011;7043;51.630;7.254;2022-12-24T00:41:53;19.60;;;6.33;;
13941;SDS011;7043;51.630;7.254;2022-12-24T00:44:19;22.70;;;6.27;;
13941;SDS011;7043;51.630;7.254;2022-12-24T00:46:44;24.27;;;5.90;;
13941;SDS011;7043;51.630;7.254;2022-12-24T00:49:11;21.23;;;5.30;;
13941;SDS011;7043;51.630;7.254;2022-12-24T00:51:37;20.37;;;5.17;;
13941;SDS011;7043;51.630;7.254;2022-12-24T00:54:03;19.27;;;5.30;;
13941;SDS011;7043;51.630;7.254;2022-12-24T00:56:30;17.27;;;5.23;;
13941;SDS011;7043;51.630;7.254;2022-12-24T00:58:56;21.27;;;6.13;;
13941;SDS011;7043;51.630;7.254;2022-12-24T01:01:22;25.53;;;5.70;;
13941;SDS011;7043;51.630;7.254;2022-12-24T01:03:48;11.93;;;4.33;;
13941;SDS011;7043;51.630;7.254;2022-12-24T01:06:19;19.10;;;5.33;;
13941;SDS011;7043;51.630;7.254;2022-12-24T01:08:48;21.77;;;5.53;;
13941;SDS011;7043;51.630;7.254;2022-12-24T01:11:15;17.63;;;4.97;;
13941;SDS011;7043;51.630;7.254;2022-12-24T01:13:41;12.33;;;4.07;;
13941;SDS011;7043;51.630;7.254;2022-12-24T01:16:15;18.80;;;5.43;;
13941;SDS011;7043;51.630;7.254;2022-12-24T01:18:41;19.17;;;4.93;;
13941;SDS011;7043;51.630;7.254;2022-12-24T01:21:07;21.27;;;5.60;;
13941;SDS011;7043;51.630;7.254;2022-12-24T01:23:33;18.10;;;5.50;;
13941;SDS011;7043;51.630;7.254;2022-12-24T01:26:02;19.53;;;5.50;;
13941;SDS011;7043;51.630;7.254;2022-12-24T01:28:30;16.93;;;5.10;;
13941;SDS011;7043;51.630;7.254;2022-12-24T01:30:56;19.27;;;4.83;;
13941;SDS011;7043;51.630;7.254;2022-12-24T01:33:22;21.63;;;5.97;;
13941;SDS011;7043;51.630;7.254;2022-12-24T01:35:48;23.03;;;5.63;;
13941;SDS011;7043;51.630;7.254;2022-12-24T01:38:14;15.17;;;4.80;;
13941;SDS011;7043;51.630;7.254;2022-12-24T01:40:40;20.80;;;6.13;;
13941;SDS011;7043;51.630;7.254;2022-12-24T01:43:26;16.77;;;5.57;;
13941;SDS011;7043;51.630;7.254;2022-12-24T01:45:54;18.93;;;4.87;;
13941;SDS011;7043;51.630;7.254;2022-12-24T01:48:33;23.60;;;5.73;;
13941;SDS011;7043;51.630;7.254;2022-12-24T01:51:01;20.17;;;5.47;;
13941;SDS011;7043;51.630;7.254;2022-12-24T01:53:28;20.13;;;5.40;;
13941;SDS011;7043;51.630;7.254;2022-12-24T01:55:55;21.87;;;6.13;;
13941;SDS011;7043;51.630;7.254;2022-12-24T01:58:22;22.13;;;6.67;;
13941;SDS011;7043;51.630;7.254;2022-12-24T02:00:49;16.27;;;4.73;;
13941;SDS011;7043;51.630;7.254;2022-12-24T02:03:15;19.00;;;5.53;;
13941;SDS011;7043;51.630;7.254;2022-12-24T02:08:10;28.73;;;6.17;;
13941;SDS011;7043;51.630;7.254;2022-12-24T02:10:36;20.73;;;6.30;;
13941;SDS011;7043;51.630;7.254;2022-12-24T02:13:02;28.17;;;6.17;;
13941;SDS011;7043;51.630;7.254;2022-12-24T02:15:31;34.03;;;10.83;;
13941;SDS011;7043;51.630;7.254;2022-12-24T02:18:02;23.07;;;9.20;;
13941;SDS011;7043;51.630;7.254;2022-12-24T02:20:35;19.20;;;5.53;;
13941;SDS011;7043;51.630;7.254;2022-12-24T02:35:34;22.67;;;6.23;;
13941;SDS011;7043;51.630;7.254;2022-12-24T02:40:45;29.03;;;6.90;;
13941;SDS011;7043;51.630;7.254;2022-12-24T02:43:14;23.40;;;7.13;;
13941;SDS011;7043;51.630;7.254;2022-12-24T02:45:41;21.80;;;5.40;;
13941;SDS011;7043;51.630;7.254;2022-12-24T02:48:09;18.77;;;5.83;;
13941;SDS011;7043;51.630;7.254;2022-12-24T02:50:35;25.60;;;5.50;;
13941;SDS011;7043;51.630;7.254;2022-12-24T02:53:01;22.73;;;5.63;;
13941;SDS011;7043;51.630;7.254;2022-12-24T03:03:57;21.87;;;5.57;;
13941;SDS011;7043;51.630;7.254;2022-12-24T03:12:03;23.27;;;6.80;;
13941;SDS011;7043;51.630;7.254;2022-12-24T03:14:32;18.20;;;6.20;;
13941;SDS011;7043;51.630;7.254;2022-12-24T03:16:59;22.27;;;6.60;;
13941;SDS011;7043;51.630;7.254;2022-12-24T03:19:27;24.57;;;5.80;;
13941;SDS011;7043;51.630;7.254;2022-12-24T03:21:54;23.90;;;5.80;;
13941;SDS011;7043;51.630;7.254;2022-12-24T03:24:21;23.53;;;7.20;;
13941;SDS011;7043;51.630;7.254;2022-12-24T03:26:47;24.13;;;7.10;;
13941;SDS011;7043;51.630;7.254;2022-12-24T03:29:14;23.90;;;7.20;;
13941;SDS011;7043;51.630;7.254;2022-12-24T03:31:44;26.80;;;5.93;;
13941;SDS011;7043;51.630;7.254;2022-12-24T03:34:11;25.97;;;7.30;;
13941;SDS011;7043;51.630;7.254;2022-12-24T03:36:37;22.50;;;6.73;;
13941;SDS011;7043;51.630;7.254;2022-12-24T03:39:03;24.73;;;6.90;;
13941;SDS011;7043;51.630;7.254;2022-12-24T03:41:29;25.87;;;6.97;;
13941;SDS011;7043;51.630;7.254;2022-12-24T03:43:56;23.87;;;6.03;;
13941;SDS011;7043;51.630;7.254;2022-12-24T03:46:22;27.30;;;6.70;;
13941;SDS011;7043;51.630;7.254;2022-12-24T03:48:47;26.73;;;6.53;;
13941;SDS011;7043;51.630;7.254;2022-12-24T03:51:15;24.13;;;6.90;;
13941;SDS011;7043;51.630;7.254;2022-12-24T03:53:41;22.23;;;6.33;;
13941;SDS011;7043;51.630;7.254;2022-12-24T03:56:07;22.77;;;6.97;;
13941;SDS011;7043;51.630;7.254;2022-12-24T03:58:33;22.73;;;6.77;;
13941;SDS011;7043;51.630;7.254;2022-12-24T04:00:59;27.00;;;7.67;;
13941;SDS011;7043;51.630;7.254;2022-12-24T04:03:26;25.53;;;7.67;;
13941;SDS011;7043;51.630;7.254;2022-12-24T04:06:09;25.33;;;7.50;;
13941;SDS011;7043;51.630;7.254;2022-12-24T04:08:35;30.73;;;8.57;;
13941;SDS011;7043;51.630;7.254;2022-12-24T04:11:05;23.97;;;6.90;;
13941;SDS011;7043;51.630;7.254;2022-12-24T04:13:31;29.87;;;7.67;;
13941;SDS011;7043;51.630;7.254;2022-12-24T04:15:58;26.23;;;7.73;;
13941;SDS011;7043;51.630;7.254;2022-12-24T04:18:24;24.73;;;7.30;;
13941;SDS011;7043;51.630;7.254;2022-12-24T04:20:50;30.60;;;7.90;;
13941;SDS011;7043;51.630;7.254;2022-12-24T04:23:16;20.43;;;7.17;;
13941;SDS011;7043;51.630;7.254;2022-12-24T04:25:42;25.43;;;7.47;;
13941;SDS011;7043;51.630;7.254;2022-12-24T04:28:08;20.40;;;6.40;;
13941;SDS011;7043;51.630;7.254;2022-12-24T04:30:34;28.10;;;7.27;;
13941;SDS011;7043;51.630;7.254;2022-12-24T04:33:00;29.97;;;6.67;;
13941;SDS011;7043;51.630;7.254;2022-12-24T04:35:26;25.67;;;6.53;;
13941;SDS011;7043;51.630;7.254;2022-12-24T04:37:52;27.57;;;6.63;;
13941;SDS011;7043;51.630;7.254;2022-12-24T04:40:18;25.53;;;6.53;;
13941;SDS011;7043;51.630;7.254;2022-12-24T04:42:44;25.03;;;6.40;;
13941;SDS011;7043;51.630;7.254;2022-12-24T04:45:10;23.80;;;5.97;;
13941;SDS011;7043;51.630;7.254;2022-12-24T04:47:36;23.77;;;6.13;;
13941;SDS011;7043;51.630;7.254;2022-12-24T04:50:02;29.03;;;7.17;;
13941;SDS011;7043;51.630;7.254;2022-12-24T04:52:28;23.90;;;5.80;;
13941;SDS011;7043;51.630;7.254;2022-12-24T04:54:54;23.03;;;6.17;;
13941;SDS011;7043;51.630;7.254;2022-12-24T04:57:20;21.97;;;5.63;;
13941;SDS011;7043;51.630;7.254;2022-12-24T04:59:46;25.53;;;7.17;;
13941;SDS011;7043;51.630;7.254;2022-12-24T05:02:12;28.93;;;6.93;;
13941;SDS011;7043;51.630;7.254;2022-12-24T05:04:38;21.93;;;6.37;;
13941;SDS011;7043;51.630;7.254;2022-12-24T05:07:04;22.13;;;6.97;;
13941;SDS011;7043;51.630;7.254;2022-12-24T05:09:30;24.27;;;7.77;;
13941;SDS011;7043;51.630;7.254;2022-12-24T05:11:56;24.20;;;7.27;;
13941;SDS011;7043;51.630;7.254;2022-12-24T05:14:22;21.13;;;6.50;;
13941;SDS011;7043;51.630;7.254;2022-12-24T05:16:49;21.07;;;6.50;;
13941;SDS011;7043;51.630;7.254;2022-12-24T05:19:15;23.87;;;6.57;;
13941;SDS011;7043;51.630;7.254;2022-12-24T05:21:41;21.50;;;6.97;;
13941;SDS011;7043;51.630;7.254;2022-12-24T05:24:09;18.03;;;6.47;;
13941;SDS011;7043;51.630;7.254;2022-12-24T05:26:55;18.47;;;6.03;;
13941;SDS011;7043;51.630;7.254;2022-12-24T05:29:22;19.60;;;6.93;;
13941;SDS011;7043;51.630;7.254;2022-12-24T05:31:48;23.90;;;7.47;;
13941;SDS011;7043;51.630;7.254;2022-12-24T05:34:15;19.93;;;6.60;;
13941;SDS011;7043;51.630;7.254;2022-12-24T05:36:41;23.33;;;7.90;;
13941;SDS011;7043;51.630;7.254;2022-12-24T05:39:07;19.27;;;7.70;;
13941;SDS011;7043;51.630;7.254;2022-12-24T05:41:33;20.73;;;8.00;;
13941;SDS011;7043;51.630;7.254;2022-12-24T05:43:59;19.57;;;7.20;;
13941;SDS011;7043;51.630;7.254;2022-12-24T05:46:25;22.87;;;7.27;;
13941;SDS011;7043;51.630;7.254;2022-12-24T05:48:51;19.97;;;7.70;;
13941;SDS011;7043;51.630;7.254;2022-12-24T05:51:18;20.53;;;7.37;;
13941;SDS011;7043;51.630;7.254;2022-12-24T05:53:46;19.90;;;7.00;;
13941;SDS011;7043;51.630;7.254;2022-12-24T05:56:13;19.83;;;7.60;;
13941;SDS011;7043;51.630;7.254;2022-12-24T05:58:40;21.60;;;8.47;;
13941;SDS011;7043;51.630;7.254;2022-12-24T06:01:06;22.43;;;7.60;;
13941;SDS011;7043;51.630;7.254;2022-12-24T06:03:33;19.37;;;7.90;;
13941;SDS011;7043;51.630;7.254;2022-12-24T06:06:06;21.73;;;8.10;;
13941;SDS011;7043;51.630;7.254;2022-12-24T06:08:33;23.07;;;8.53;;
13941;SDS011;7043;51.630;7.254;2022-12-24T06:10:59;22.13;;;8.57;;
13941;SDS011;7043;51.630;7.254;2022-12-24T06:13:25;23.10;;;9.10;;
13941;SDS011;7043;51.630;7.254;2022-12-24T06:15:55;19.43;;;8.40;;
13941;SDS011;7043;51.630;7.254;2022-12-24T06:18:21;20.33;;;7.90;;
13941;SDS011;7043;51.630;7.254;2022-12-24T06:20:55;20.03;;;7.77;;
13941;SDS011;7043;51.630;7.254;2022-12-24T06:23:21;18.83;;;7.80;;
13941;SDS011;7043;51.630;7.254;2022-12-24T06:25:48;20.17;;;8.10;;
13941;SDS011;7043;51.630;7.254;2022-12-24T06:28:14;16.77;;;7.50;;
13941;SDS011;7043;51.630;7.254;2022-12-24T06:30:44;22.63;;;7.90;;
13941;SDS011;7043;51.630;7.254;2022-12-24T06:33:10;19.13;;;8.60;;
13941;SDS011;7043;51.630;7.254;2022-12-24T06:35:36;23.23;;;8.37;;
13941;SDS011;7043;51.630;7.254;2022-12-24T06:38:02;21.17;;;7.77;;
13941;SDS011;7043;51.630;7.254;2022-12-24T06:40:28;19.30;;;6.50;;
13941;SDS011;7043;51.630;7.254;2022-12-24T06:42:54;23.97;;;7.33;;
13941;SDS011;7043;51.630;7.254;2022-12-24T06:45:20;22.37;;;8.83;;
13941;SDS011;7043;51.630;7.254;2022-12-24T06:47:47;24.50;;;8.27;;
13941;SDS011;7043;51.630;7.254;2022-12-24T06:50:13;21.50;;;8.40;;
13941;SDS011;7043;51.630;7.254;2022-12-24T06:52:39;20.40;;;7.90;;
13941;SDS011;7043;51.630;7.254;2022-12-24T06:55:06;23.53;;;8.60;;
13941;SDS011;7043;51.630;7.254;2022-12-24T06:57:32;20.90;;;8.17;;
13941;SDS011;7043;51.630;7.254;2022-12-24T06:59:58;23.90;;;7.87;;
13941;SDS011;7043;51.630;7.254;2022-12-24T07:02:24;17.77;;;6.10;;
13941;SDS011;7043;51.630;7.254;2022-12-24T07:04:50;20.23;;;7.97;;
13941;SDS011;7043;51.630;7.254;2022-12-24T07:07:16;17.87;;;7.23;;
13941;SDS011;7043;51.630;7.254;2022-12-24T07:09:42;17.77;;;6.93;;
13941;SDS011;7043;51.630;7.254;2022-12-24T07:12:08;19.90;;;7.73;;
13941;SDS011;7043;51.630;7.254;2022-12-24T07:14:34;15.00;;;6.60;;
13941;SDS011;7043;51.630;7.254;2022-12-24T07:17:00;20.60;;;6.23;;
13941;SDS011;7043;51.630;7.254;2022-12-24T07:19:26;18.73;;;7.10;;
13941;SDS011;7043;51.630;7.254;2022-12-24T07:21:52;17.63;;;6.20;;
13941;SDS011;7043;51.630;7.254;2022-12-24T07:24:18;18.87;;;6.23;;
13941;SDS011;7043;51.630;7.254;2022-12-24T07:26:44;17.60;;;5.87;;
13941;SDS011;7043;51.630;7.254;2022-12-24T07:29:10;19.77;;;6.47;;
13941;SDS011;7043;51.630;7.254;2022-12-24T07:31:36;19.40;;;6.37;;
13941;SDS011;7043;51.630;7.254;2022-12-24T07:34:02;16.60;;;6.60;;
13941;SDS011;7043;51.630;7.254;2022-12-24T07:36:29;19.90;;;6.40;;
13941;SDS011;7043;51.630;7.254;2022-12-24T07:38:55;15.77;;;5.83;;
13941;SDS011;7043;51.630;7.254;2022-12-24T07:41:21;16.17;;;5.70;;
13941;SDS011;7043;51.630;7.254;2022-12-24T07:43:47;17.10;;;5.90;;
13941;SDS011;7043;51.630;7.254;2022-12-24T07:46:13;18.17;;;5.00;;
13941;SDS011;7043;51.630;7.254;2022-12-24T07:48:39;19.30;;;5.27;;
13941;SDS011;7043;51.630;7.254;2022-12-24T07:51:05;19.77;;;6.20;;
13941;SDS011;7043;51.630;7.254;2022-12-24T07:53:31;22.70;;;6.73;;
13941;SDS011;7043;51.630;7.254;2022-12-24T07:55:57;21.27;;;6.07;;
13941;SDS011;7043;51.630;7.254;2022-12-24T07:58:23;18.37;;;6.40;;
13941;SDS011;7043;51.630;7.254;2022-12-24T08:00:54;19.53;;;6.53;;
13941;SDS011;7043;51.630;7.254;2022-12-24T08:03:20;15.60;;;6.13;;
13941;SDS011;7043;51.630;7.254;2022-12-24T08:05:46;18.77;;;6.57;;
13941;SDS011;7043;51.630;7.254;2022-12-24T08:08:12;20.30;;;6.43;;
13941;SDS011;7043;51.630;7.254;2022-12-24T08:10:39;16.47;;;6.20;;
13941;SDS011;7043;51.630;7.254;2022-12-24T08:13:06;24.60;;;6.67;;
13941;SDS011;7043;51.630;7.254;2022-12-24T08:15:32;21.73;;;7.20;;
13941;SDS011;7043;51.630;7.254;2022-12-24T08:18:00;16.97;;;6.27;;
13941;SDS011;7043;51.630;7.254;2022-12-24T08:20:26;22.03;;;7.60;;
13941;SDS011;7043;51.630;7.254;2022-12-24T08:22:52;21.33;;;7.67;;
13941;SDS011;7043;51.630;7.254;2022-12-24T08:25:18;20.90;;;6.27;;
13941;SDS011;7043;51.630;7.254;2022-12-24T08:27:44;26.77;;;7.70;;
13941;SDS011;7043;51.630;7.254;2022-12-24T08:30:16;19.90;;;6.50;;
13941;SDS011;7043;51.630;7.254;2022-12-24T08:32:42;16.53;;;6.50;;
13941;SDS011;7043;51.630;7.254;2022-12-24T08:35:08;19.63;;;6.40;;
13941;SDS011;7043;51.630;7.254;2022-12-24T08:37:34;18.63;;;6.60;;
13941;SDS011;7043;51.630;7.254;2022-12-24T08:40:01;20.30;;;6.10;;
13941;SDS011;7043;51.630;7.254;2022-12-24T08:42:26;23.30;;;5.80;;
13941;SDS011;7043;51.630;7.254;2022-12-24T08:44:52;18.27;;;5.57;;
13941;SDS011;7043;51.630;7.254;2022-12-24T08:47:18;19.23;;;6.07;;
13941;SDS011;7043;51.630;7.254;2022-12-24T08:49:45;17.97;;;6.00;;
13941;SDS011;7043;51.630;7.254;2022-12-24T08:52:12;22.37;;;6.33;;
13941;SDS011;7043;51.630;7.254;2022-12-24T08:54:38;20.67;;;6.27;;
13941;SDS011;7043;51.630;7.254;2022-12-24T08:57:05;19.63;;;5.63;;
13941;SDS011;7043;51.630;7.254;2022-12-24T08:59:31;19.47;;;6.07;;
13941;SDS011;7043;51.630;7.254;2022-12-24T09:01:57;19.33;;;5.83;;
13941;SDS011;7043;51.630;7.254;2022-12-24T09:04:24;19.07;;;5.53;;
13941;SDS011;7043;51.630;7.254;2022-12-24T09:06:50;19.70;;;6.40;;
13941;SDS011;7043;51.630;7.254;2022-12-24T09:09:16;24.57;;;6.87;;
13941;SDS011;7043;51.630;7.254;2022-12-24T09:11:42;24.17;;;6.03;;
13941;SDS011;7043;51.630;7.254;2022-12-24T09:14:09;16.87;;;5.70;;
13941;SDS011;7043;51.630;7.254;2022-12-24T09:16:35;23.20;;;5.87;;
13941;SDS011;7043;51.630;7.254;2022-12-24T09:19:03;23.27;;;7.23;;
13941;SDS011;7043;51.630;7.254;2022-12-24T09:21:29;22.03;;;5.90;;
13941;SDS011;7043;51.630;7.254;2022-12-24T09:23:55;19.70;;;5.93;;
13941;SDS011;7043;51.630;7.254;2022-12-24T09:26:22;19.93;;;5.60;;
13941;SDS011;7043;51.630;7.254;2022-12-24T09:28:51;24.03;;;6.47;;
13941;SDS011;7043;51.630;7.254;2022-12-24T09:31:20;23.40;;;6.80;;
13941;SDS011;7043;51.630;7.254;2022-12-24T09:33:47;18.50;;;6.20;;
13941;SDS011;7043;51.630;7.254;2022-12-24T09:36:13;24.23;;;7.03;;
13941;SDS011;7043;51.630;7.254;2022-12-24T09:38:39;23.57;;;6.70;;
13941;SDS011;7043;51.630;7.254;2022-12-24T09:41:19;24.53;;;7.17;;
13941;SDS011;7043;51.630;7.254;2022-12-24T09:48:44;19.80;;;6.50;;
13941;SDS011;7043;51.630;7.254;2022-12-24T09:51:15;26.07;;;7.67;;
13941;SDS011;7043;51.630;7.254;2022-12-24T09:53:47;55.67;;;40.67;;
13941;SDS011;7043;51.630;7.254;2022-12-24T09:56:20;66.77;;;53.07;;
13941;SDS011;7043;51.630;7.254;2022-12-24T09:58:50;94.30;;;61.87;;
13941;SDS011;7043;51.630;7.254;2022-12-24T10:03:48;62.50;;;40.53;;
13941;SDS011;7043;51.630;7.254;2022-12-24T10:06:26;48.27;;;27.93;;
13941;SDS011;7043;51.630;7.254;2022-12-24T10:09:04;36.50;;;14.20;;
13941;SDS011;7043;51.630;7.254;2022-12-24T10:11:47;28.27;;;10.77;;
13941;SDS011;7043;51.630;7.254;2022-12-24T10:27:14;20.93;;;7.80;;
13941;SDS011;7043;51.630;7.254;2022-12-24T10:29:41;20.20;;;8.07;;
13941;SDS011;7043;51.630;7.254;2022-12-24T10:34:39;21.17;;;7.63;;
13941;SDS011;7043;51.630;7.254;2022-12-24T10:37:08;20.53;;;7.13;;
13941;SDS011;7043;51.630;7.254;2022-12-24T10:39:35;20.73;;;7.83;;
13941;SDS011;7043;51.630;7.254;2022-12-24T10:42:01;23.83;;;7.57;;
13941;SDS011;7043;51.630;7.254;2022-12-24T10:44:31;23.90;;;6.83;;
13941;SDS011;7043;51.630;7.254;2022-12-24T10:47:00;25.03;;;7.60;;
13941;SDS011;7043;51.630;7.254;2022-12-24T10:49:40;23.10;;;7.40;;
13941;SDS011;7043;51.630;7.254;2022-12-24T10:52:14;23.60;;;7.03;;
13941;SDS011;7043;51.630;7.254;2022-12-24T10:55:26;22.40;;;7.17;;
13941;SDS011;7043;51.630;7.254;2022-12-24T10:57:35;24.67;;;6.93;;
13941;SDS011;7043;51.630;7.254;2022-12-24T11:00:01;24.67;;;7.23;;
13941;SDS011;7043;51.630;7.254;2022-12-24T11:02:31;25.20;;;7.77;;
13941;SDS011;7043;51.630;7.254;2022-12-24T11:04:59;26.57;;;7.83;;
13941;SDS011;7043;51.630;7.254;2022-12-24T11:07:25;21.23;;;7.50;;
13941;SDS011;7043;51.630;7.254;2022-12-24T11:09:56;27.20;;;7.20;;
13941;SDS011;7043;51.630;7.254;2022-12-24T11:12:45;29.43;;;8.50;;
13941;SDS011;7043;51.630;7.254;2022-12-24T11:17:59;24.20;;;8.53;;
13941;SDS011;7043;51.630;7.254;2022-12-24T11:20:28;24.73;;;8.70;;
13941;SDS011;7043;51.630;7.254;2022-12-24T11:22:55;23.70;;;8.57;;
13941;SDS011;7043;51.630;7.254;2022-12-24T11:25:21;26.27;;;8.67;;
13941;SDS011;7043;51.630;7.254;2022-12-24T11:27:49;22.67;;;8.03;;
13941;SDS011;7043;51.630;7.254;2022-12-24T11:32:46;27.80;;;8.17;;
13941;SDS011;7043;51.630;7.254;2022-12-24T11:37:41;23.90;;;7.87;;
13941;SDS011;7043;51.630;7.254;2022-12-24T11:40:17;19.63;;;7.40;;
13941;SDS011;7043;51.630;7.254;2022-12-24T11:42:46;26.43;;;7.63;;
13941;SDS011;7043;51.630;7.254;2022-12-24T11:45:23;25.10;;;9.47;;
13941;SDS011;7043;51.630;7.254;2022-12-24T11:47:51;20.87;;;8.17;;
13941;SDS011;7043;51.630;7.254;2022-12-24T11:55:52;26.97;;;8.87;;
13941;SDS011;7043;51.630;7.254;2022-12-24T11:58:33;22.33;;;8.80;;
13941;SDS011;7043;51.630;7.254;2022-12-24T12:03:42;25.43;;;8.47;;
13941;SDS011;7043;51.630;7.254;2022-12-24T12:11:41;23.27;;;8.73;;
13941;SDS011;7043;51.630;7.254;2022-12-24T12:14:13;26.73;;;8.00;;
13941;SDS011;7043;51.630;7.254;2022-12-24T12:22:27;20.90;;;6.23;;
13941;SDS011;7043;51.630;7.254;2022-12-24T12:24:55;19.70;;;7.33;;
13941;SDS011;7043;51.630;7.254;2022-12-24T12:27:30;21.20;;;7.17;;
13941;SDS011;7043;51.630;7.254;2022-12-24T12:30:06;22.07;;;8.23;;
13941;SDS011;7043;51.630;7.254;2022-12-24T12:37:37;20.00;;;6.67;;
13941;SDS011;7043;51.630;7.254;2022-12-24T12:40:10;17.57;;;6.77;;
13941;SDS011;7043;51.630;7.254;2022-12-24T12:42:38;17.17;;;6.60;;
13941;SDS011;7043;51.630;7.254;2022-12-24T12:47:48;19.97;;;7.73;;
13941;SDS011;7043;51.630;7.254;2022-12-24T12:52:59;18.97;;;7.63;;
13941;SDS011;7043;51.630;7.254;2022-12-24T12:55:48;20.73;;;7.87;;
13941;SDS011;7043;51.630;7.254;2022-12-24T12:58:18;21.17;;;8.13;;
13941;SDS011;7043;51.630;7.254;2022-12-24T13:00:46;24.00;;;7.97;;
13941;SDS011;7043;51.630;7.254;2022-12-24T13:08:43;23.50;;;8.10;;
13941;SDS011;7043;51.630;7.254;2022-12-24T13:12:13;24.23;;;8.83;;
13941;SDS011;7043;51.630;7.254;2022-12-24T13:19:13;19.73;;;7.60;;
13941;SDS011;7043;51.630;7.254;2022-12-24T13:21:42;22.87;;;7.97;;
13941;SDS011;7043;51.630;7.254;2022-12-24T13:34:53;22.70;;;7.60;;
13941;SDS011;7043;51.630;7.254;2022-12-24T13:37:38;21.53;;;6.90;;
13941;SDS011;7043;51.630;7.254;2022-12-24T13:42:46;20.23;;;7.97;;
13941;SDS011;7043;51.630;7.254;2022-12-24T13:50:37;19.03;;;6.90;;
13941;SDS011;7043;51.630;7.254;2022-12-24T13:53:05;19.63;;;6.90;;
13941;SDS011;7043;51.630;7.254;2022-12-24T13:55:32;18.87;;;7.03;;
13941;SDS011;7043;51.630;7.254;2022-12-24T13:58:03;19.83;;;7.00;;
13941;SDS011;7043;51.630;7.254;2022-12-24T14:00:31;18.73;;;7.57;;
13941;SDS011;7043;51.630;7.254;2022-12-24T14:07:51;20.03;;;7.70;;
13941;SDS011;7043;51.630;7.254;2022-12-24T14:10:25;21.47;;;8.73;;
13941;SDS011;7043;51.630;7.254;2022-12-24T14:12:52;19.70;;;7.30;;
13941;SDS011;7043;51.630;7.254;2022-12-24T14:18:06;21.23;;;8.40;;
13941;SDS011;7043;51.630;7.254;2022-12-24T14:20:32;21.67;;;9.07;;
13941;SDS011;7043;51.630;7.254;2022-12-24T14:22:58;17.10;;;7.17;;
13941;SDS011;7043;51.630;7.254;2022-12-24T14:25:24;21.57;;;9.87;;
13941;SDS011;7043;51.630;7.254;2022-12-24T14:27:52;24.47;;;11.80;;
13941;SDS011;7043;51.630;7.254;2022-12-24T14:30:20;21.77;;;8.63;;
13941;SDS011;7043;51.630;7.254;2022-12-24T14:32:48;25.40;;;8.83;;
13941;SDS011;7043;51.630;7.254;2022-12-24T14:35:19;20.00;;;6.53;;
13941;SDS011;7043;51.630;7.254;2022-12-24T14:37:46;16.67;;;6.87;;
13941;SDS011;7043;51.630;7.254;2022-12-24T14:40:17;16.10;;;6.50;;
13941;SDS011;7043;51.630;7.254;2022-12-24T14:50:31;19.13;;;7.97;;
13941;SDS011;7043;51.630;7.254;2022-12-24T14:53:06;18.90;;;7.50;;
13941;SDS011;7043;51.630;7.254;2022-12-24T14:55:45;19.10;;;7.30;;
13941;SDS011;7043;51.630;7.254;2022-12-24T15:00:47;20.80;;;7.40;;
13941;SDS011;7043;51.630;7.254;2022-12-24T15:03:15;22.20;;;8.40;;
13941;SDS011;7043;51.630;7.254;2022-12-24T15:05:42;23.87;;;9.00;;
13941;SDS011;7043;51.630;7.254;2022-12-24T15:08:18;18.83;;;8.60;;
13941;SDS011;7043;51.630;7.254;2022-12-24T15:10:46;21.70;;;8.70;;
13941;SDS011;7043;51.630;7.254;2022-12-24T15:15:44;21.13;;;7.97;;
13941;SDS011;7043;51.630;7.254;2022-12-24T15:18:13;24.90;;;8.57;;
13941;SDS011;7043;51.630;7.254;2022-12-24T15:20:42;19.67;;;8.27;;
13941;SDS011;7043;51.630;7.254;2022-12-24T15:23:15;21.10;;;8.73;;
13941;SDS011;7043;51.630;7.254;2022-12-24T15:25:42;20.50;;;8.20;;
13941;SDS011;7043;51.630;7.254;2022-12-24T15:28:15;21.43;;;8.63;;
13941;SDS011;7043;51.630;7.254;2022-12-24T15:30:42;22.37;;;8.33;;
13941;SDS011;7043;51.630;7.254;2022-12-24T15:33:08;21.63;;;8.20;;
13941;SDS011;7043;51.630;7.254;2022-12-24T15:35:48;20.47;;;8.83;;
13941;SDS011;7043;51.630;7.254;2022-12-24T15:38:22;19.83;;;8.50;;
13941;SDS011;7043;51.630;7.254;2022-12-24T15:40:49;23.63;;;9.67;;
13941;SDS011;7043;51.630;7.254;2022-12-24T15:43:15;23.07;;;8.97;;
13941;SDS011;7043;51.630;7.254;2022-12-24T15:45:42;21.40;;;8.50;;
13941;SDS011;7043;51.630;7.254;2022-12-24T15:48:10;18.10;;;8.43;;
13941;SDS011;7043;51.630;7.254;2022-12-24T15:50:42;23.90;;;9.83;;
13941;SDS011;7043;51.630;7.254;2022-12-24T15:53:14;22.03;;;9.17;;
13941;SDS011;7043;51.630;7.254;2022-12-24T15:55:46;23.67;;;10.00;;
13941;SDS011;7043;51.630;7.254;2022-12-24T15:58:17;20.40;;;9.37;;
13941;SDS011;7043;51.630;7.254;2022-12-24T16:01:03;28.70;;;15.97;;
13941;SDS011;7043;51.630;7.254;2022-12-24T16:03:29;28.50;;;12.57;;
13941;SDS011;7043;51.630;7.254;2022-12-24T16:06:07;24.07;;;12.77;;
13941;SDS011;7043;51.630;7.254;2022-12-24T16:08:36;22.73;;;10.10;;
13941;SDS011;7043;51.630;7.254;2022-12-24T16:16:16;23.10;;;11.47;;
13941;SDS011;7043;51.630;7.254;2022-12-24T16:18:54;27.00;;;14.63;;
13941;SDS011;7043;51.630;7.254;2022-12-24T16:23:50;24.10;;;12.93;;
13941;SDS011;7043;51.630;7.254;2022-12-24T16:26:18;23.73;;;12.50;;
13941;SDS011;7043;51.630;7.254;2022-12-24T16:28:45;25.37;;;12.43;;
13941;SDS011;7043;51.630;7.254;2022-12-24T16:31:19;23.67;;;12.03;;
13941;SDS011;7043;51.630;7.254;2022-12-24T16:33:54;28.53;;;13.50;;
13941;SDS011;7043;51.630;7.254;2022-12-24T16:36:21;26.60;;;12.37;;
13941;SDS011;7043;51.630;7.254;2022-12-24T16:38:47;23.47;;;12.20;;
13941;SDS011;7043;51.630;7.254;2022-12-24T16:41:31;28.63;;;14.33;;
13941;SDS011;7043;51.630;7.254;2022-12-24T16:44:17;30.10;;;13.10;;
13941;SDS011;7043;51.630;7.254;2022-12-24T16:46:44;23.27;;;10.50;;
13941;SDS011;7043;51.630;7.254;2022-12-24T16:49:12;21.97;;;10.20;;
13941;SDS011;7043;51.630;7.254;2022-12-24T16:51:40;25.33;;;11.83;;
13941;SDS011;7043;51.630;7.254;2022-12-24T16:54:06;27.70;;;13.97;;
13941;SDS011;7043;51.630;7.254;2022-12-24T16:56:33;25.60;;;11.97;;
13941;SDS011;7043;51.630;7.254;2022-12-24T16:58:59;23.73;;;10.80;;
13941;SDS011;7043;51.630;7.254;2022-12-24T17:01:25;24.77;;;10.83;;
13941;SDS011;7043;51.630;7.254;2022-12-24T17:03:51;23.60;;;9.37;;
13941;SDS011;7043;51.630;7.254;2022-12-24T17:06:17;28.40;;;10.37;;
13941;SDS011;7043;51.630;7.254;2022-12-24T17:08:43;23.30;;;10.83;;
13941;SDS011;7043;51.630;7.254;2022-12-24T17:11:09;26.03;;;11.13;;
13941;SDS011;7043;51.630;7.254;2022-12-24T17:13:35;22.53;;;10.20;;
13941;SDS011;7043;51.630;7.254;2022-12-24T17:16:01;21.33;;;10.17;;
13941;SDS011;7043;51.630;7.254;2022-12-24T17:18:27;23.40;;;10.23;;
13941;SDS011;7043;51.630;7.254;2022-12-24T17:20:57;24.43;;;10.00;;